createdAt,value
2022-12-22T00:02:17.618Z,7.96
2022-12-22T00:07:20.323Z,7.94
2022-12-22T00:12:21.991Z,7.84
2022-12-22T00:17:26.418Z,7.81
2022-12-22T00:22:27.970Z,7.76
2022-12-22T00:27:30.928Z,7.65
2022-12-22T00:32:35.918Z,7.63
2022-12-22T00:37:38.106Z,7.62
2022-12-22T00:42:40.556Z,7.66
2022-12-22T00:47:43.269Z,7.74
2022-12-22T00:52:45.004Z,7.78
2022-12-22T00:57:46.707Z,7.91
2022-12-22T01:02:48.393Z,7.92
2022-12-22T01:07:50.174Z,7.91
2022-12-22T01:12:51.801Z,7.94
2022-12-22T01:17:53.321Z,7.91
2022-12-22T01:22:54.833Z,7.88
2022-12-22T01:27:56.458Z,7.83
2022-12-22T01:32:58.017Z,7.81
2022-12-22T01:37:59.552Z,7.86
2022-12-22T01:43:01.330Z,7.93
2022-12-22T01:48:02.992Z,8.21
2022-12-22T01:53:08.598Z,8.57
2022-12-22T01:58:26.478Z,8.81
2022-12-22T02:03:28.105Z,8.95
2022-12-22T02:08:38.040Z,8.96
2022-12-22T02:13:59.555Z,8.99
2022-12-22T02:19:43.370Z,9.02
2022-12-22T02:24:57.855Z,9.06
2022-12-22T02:30:05.882Z,9.05
2022-12-22T02:35:16.153Z,9.07
2022-12-22T02:40:40.651Z,9.12
2022-12-22T02:46:01.204Z,9.12
2022-12-22T02:51:07.065Z,9.12
2022-12-22T02:56:10.868Z,9.09
2022-12-22T03:01:12.615Z,9.09
2022-12-22T03:06:14.187Z,9.08
2022-12-22T03:11:15.677Z,9.13
2022-12-22T03:16:17.378Z,9.11
2022-12-22T03:21:18.932Z,8.97
2022-12-22T03:26:23.953Z,8.86
2022-12-22T03:31:25.611Z,8.82
2022-12-22T03:36:27.233Z,8.77
2022-12-22T03:41:28.814Z,8.70
2022-12-22T03:46:30.488Z,8.72
2022-12-22T03:51:33.660Z,8.70
2022-12-22T03:56:38.058Z,8.64
2022-12-22T04:01:42.861Z,8.55
2022-12-22T04:06:45.497Z,8.47
2022-12-22T04:11:47.042Z,8.38
2022-12-22T04:16:49.224Z,8.34
2022-12-22T04:21:50.872Z,8.40
2022-12-22T04:26:52.766Z,8.36
2022-12-22T04:31:54.343Z,8.40
2022-12-22T04:37:00.504Z,8.52
2022-12-22T04:42:06.189Z,8.62
2022-12-22T04:47:07.913Z,8.77
2022-12-22T04:52:10.097Z,8.81
2022-12-22T04:57:11.667Z,8.83
2022-12-22T05:02:13.409Z,8.67
2022-12-22T05:07:15.099Z,8.77
2022-12-22T05:12:16.892Z,8.75
2022-12-22T05:17:19.050Z,8.65
2022-12-22T05:22:20.578Z,8.47
2022-12-22T05:27:22.207Z,8.52
2022-12-22T05:32:23.837Z,8.36
2022-12-22T05:37:25.364Z,8.25
2022-12-22T05:42:27.000Z,8.25
2022-12-22T05:47:28.513Z,8.26
2022-12-22T05:52:30.258Z,8.26
2022-12-22T05:57:31.859Z,8.36
2022-12-22T06:02:33.619Z,8.46
2022-12-22T06:07:38.029Z,8.63
2022-12-22T06:12:43.552Z,8.63
2022-12-22T06:17:45.595Z,8.53
2022-12-22T06:22:47.143Z,8.43
2022-12-22T06:27:48.716Z,8.47
2022-12-22T06:32:50.263Z,8.52
2022-12-22T06:37:51.770Z,8.76
2022-12-22T06:42:53.302Z,9.02
2022-12-22T06:47:54.945Z,9.16
2022-12-22T06:52:56.493Z,9.24
2022-12-22T06:57:58.208Z,9.32
2022-12-22T07:03:00.384Z,9.35
2022-12-22T07:08:08.031Z,9.39
2022-12-22T07:13:10.212Z,9.41
2022-12-22T07:18:12.275Z,9.42
2022-12-22T07:23:14.025Z,9.45
2022-12-22T07:28:20.670Z,9.46
2022-12-22T07:33:23.168Z,9.50
2022-12-22T07:38:24.776Z,9.54
2022-12-22T07:43:26.316Z,9.53
2022-12-22T07:48:27.815Z,9.56
2022-12-22T07:53:29.412Z,9.60
2022-12-22T07:58:31.119Z,9.60
2022-12-22T08:03:32.651Z,9.68
2022-12-22T08:08:34.665Z,9.84
2022-12-22T08:13:36.184Z,9.96
2022-12-22T08:18:38.627Z,10.02
2022-12-22T08:23:40.288Z,10.03
2022-12-22T08:28:50.595Z,10.01
2022-12-22T08:33:54.984Z,10.01
2022-12-22T08:38:57.215Z,10.05
2022-12-22T08:43:58.826Z,10.09
2022-12-22T08:49:00.524Z,10.24
2022-12-22T08:54:05.436Z,10.56
2022-12-22T08:59:08.065Z,10.78
2022-12-22T09:04:12.553Z,11.04
2022-12-22T09:09:15.445Z,11.19
2022-12-22T09:14:17.644Z,11.17
2022-12-22T09:19:19.448Z,11.16
2022-12-22T09:24:20.955Z,11.15
2022-12-22T09:29:22.615Z,11.18
2022-12-22T09:34:24.469Z,11.28
2022-12-22T09:39:29.170Z,11.38
2022-12-22T09:44:38.094Z,11.57
2022-12-22T09:49:39.797Z,11.61
2022-12-22T09:54:41.447Z,11.37
2022-12-22T09:59:43.113Z,11.24
2022-12-22T10:04:56.978Z,11.42
2022-12-22T10:10:08.610Z,11.44
2022-12-22T10:15:14.257Z,11.39
2022-12-22T10:20:27.779Z,10.83
2022-12-22T10:31:12.764Z,10.67
2022-12-22T10:36:21.175Z,10.98
2022-12-22T10:41:27.091Z,11.04
2022-12-22T10:46:34.262Z,11.50
2022-12-22T10:51:35.990Z,11.64
2022-12-22T10:56:37.568Z,12.16
2022-12-22T11:01:39.442Z,12.27
2022-12-22T11:06:43.782Z,11.95
2022-12-22T11:11:55.758Z,11.91
2022-12-22T11:17:15.828Z,11.94
2022-12-22T11:22:48.421Z,11.89
2022-12-22T11:28:12.383Z,12.79
2022-12-22T11:33:46.133Z,14.80
2022-12-22T11:38:54.479Z,13.75
2022-12-22T11:44:12.072Z,12.78
2022-12-22T11:49:40.380Z,12.56
2022-12-22T11:55:10.379Z,12.92
2022-12-22T12:00:14.416Z,13.10
2022-12-22T12:05:42.306Z,13.13
2022-12-22T12:11:14.645Z,12.91
2022-12-22T12:16:34.924Z,12.51
2022-12-22T12:22:05.520Z,12.16
2022-12-22T12:27:55.109Z,11.93
2022-12-22T12:33:07.184Z,11.79
2022-12-22T12:38:47.909Z,11.59
2022-12-22T12:43:41.240Z,11.65
2022-12-22T12:48:42.939Z,11.85
2022-12-22T12:54:33.960Z,12.06
2022-12-22T12:59:41.547Z,12.16
2022-12-22T13:05:09.241Z,12.07
2022-12-22T13:10:24.689Z,12.01
2022-12-22T13:15:36.004Z,11.79
2022-12-22T13:20:38.115Z,11.67
2022-12-22T13:25:45.582Z,11.58
2022-12-22T13:30:49.395Z,11.52
2022-12-22T13:35:58.270Z,11.22
2022-12-22T13:41:04.601Z,11.15
2022-12-22T13:46:09.258Z,11.03
2022-12-22T13:51:18.187Z,11.13
2022-12-22T13:56:23.556Z,11.17
2022-12-22T14:01:26.153Z,11.10
2022-12-22T14:06:29.498Z,11.10
2022-12-22T14:11:31.332Z,11.14
2022-12-22T14:16:33.062Z,10.97
2022-12-22T14:21:35.176Z,11.00
2022-12-22T14:26:36.784Z,11.07
2022-12-22T14:31:58.271Z,11.08
2022-12-22T14:37:01.796Z,11.14
2022-12-22T14:42:13.179Z,11.17
2022-12-22T14:47:23.306Z,11.16
2022-12-22T14:52:43.822Z,11.13
2022-12-22T14:57:45.603Z,11.13
2022-12-22T15:03:01.375Z,11.09
2022-12-22T15:08:08.900Z,11.07
2022-12-22T15:13:23.928Z,11.08
2022-12-22T15:18:27.376Z,11.03
2022-12-22T15:23:29.020Z,11.04
2022-12-22T15:28:31.188Z,10.94
2022-12-22T15:33:33.107Z,10.97
2022-12-22T15:38:38.758Z,10.89
2022-12-22T15:43:59.640Z,10.98
2022-12-22T15:49:02.217Z,10.96
2022-12-22T15:54:04.260Z,10.99
2022-12-22T15:59:06.099Z,11.01
2022-12-22T16:04:07.707Z,11.08
2022-12-22T16:25:38.512Z,11.28
2022-12-22T17:30:25.047Z,11.31
2022-12-22T17:35:27.032Z,11.23
2022-12-22T17:40:30.330Z,11.22
2022-12-22T17:45:32.168Z,11.18
2022-12-22T17:50:34.511Z,11.15
2022-12-22T18:00:57.828Z,10.77
2022-12-22T18:05:59.938Z,10.68
2022-12-22T18:11:02.424Z,10.65
2022-12-22T18:16:04.274Z,10.67
2022-12-22T18:21:08.308Z,10.68
2022-12-22T18:26:25.378Z,10.56
2022-12-22T18:31:26.985Z,10.40
2022-12-22T18:36:32.107Z,10.36
2022-12-22T18:41:34.289Z,10.34
2022-12-22T18:46:35.950Z,10.36
2022-12-22T18:51:37.709Z,10.34
2022-12-22T18:56:39.337Z,10.22
2022-12-22T19:52:34.234Z,9.67
2022-12-22T19:57:36.228Z,9.67
2022-12-22T20:08:02.207Z,9.82
2022-12-22T20:18:52.370Z,9.82
2022-12-22T20:23:56.685Z,9.83
2022-12-22T20:28:58.375Z,9.79
2022-12-22T20:33:59.981Z,9.69
2022-12-22T20:39:02.938Z,9.55
2022-12-22T20:44:04.548Z,9.49
2022-12-22T20:49:14.988Z,9.33
2022-12-22T20:54:16.711Z,9.29
2022-12-22T20:59:21.446Z,9.24
2022-12-22T21:04:23.168Z,9.26
2022-12-22T21:09:25.904Z,9.23
2022-12-22T21:14:27.569Z,9.16
2022-12-22T21:19:29.275Z,9.10
2022-12-22T21:24:30.781Z,9.02
2022-12-22T21:40:28.630Z,9.17
2022-12-22T21:45:31.628Z,9.24
2022-12-22T21:50:35.119Z,9.27
2022-12-22T21:55:38.744Z,9.23
2022-12-22T22:00:45.667Z,9.18
2022-12-22T22:05:47.382Z,9.11
2022-12-22T22:10:49.431Z,9.03
2022-12-22T22:21:17.079Z,8.90
2022-12-22T22:26:18.727Z,8.88
2022-12-22T22:31:20.410Z,8.90
2022-12-22T22:36:22.104Z,8.92
2022-12-22T22:41:23.684Z,8.96
2022-12-22T22:46:25.427Z,9.00
2022-12-22T22:51:32.501Z,9.03
2022-12-22T23:02:01.481Z,9.09
2022-12-22T23:07:03.748Z,9.10
2022-12-22T23:33:40.857Z,9.21
2022-12-22T23:44:06.517Z,9.23
2022-12-22T23:54:31.870Z,9.30
2022-12-22T23:59:34.652Z,9.45
